Time;durP1;ratioP1;P1;durP2;ratioP2;P2;SDS_P1;SDS_P2;PMS_P1;PMS_P2;Temp;Humidity;BMP_temperature;BMP_pressure;BME280_temperature;BME280_humidity;BME280_pressure;Samples;Min_cycle;Max_cycle;Signal;HPM_P1;HPM_P2
2022/08/20 00:00:18;;;;;;;;;3.00;2.00;;;;;-147.47;100.00;64613.53;5027074;28;45429;-78
2022/08/20 00:02:51;;;;;;;;;1.00;1.00;;;;;-147.47;100.00;64613.53;5023475;28;45852;-78
2022/08/20 00:05:21;;;;;;;;;4.00;2.33;;;;;-147.47;100.00;64613.53;5027898;28;45801;-78
2022/08/20 00:07:47;;;;;;;;;1.67;1.00;;;;;-147.47;100.00;64613.53;5011634;28;45612;-76
2022/08/20 00:10:13;;;;;;;;;4.00;3.00;;;;;-147.47;100.00;64613.53;5028966;28;45502;-76
2022/08/20 00:12:44;;;;;;;;;3.00;2.67;;;;;-147.47;100.00;64613.53;5014583;28;45370;-77
2022/08/20 00:15:11;;;;;;;;;3.67;1.67;;;;;-147.47;100.00;64613.53;5029456;28;45436;-79
2022/08/20 00:17:37;;;;;;;;;2.33;2.33;;;;;-147.47;100.00;64613.53;5031492;28;45813;-78
2022/08/20 00:20:06;;;;;;;;;2.00;2.00;;;;;-147.47;100.00;64613.53;5011249;28;48374;-78
2022/08/20 00:22:32;;;;;;;;;2.00;2.00;;;;;-147.47;100.00;64613.53;5032087;28;45934;-77
2022/08/20 00:24:57;;;;;;;;;2.33;1.33;;;;;-147.47;100.00;64613.53;5033639;28;45440;-76
2022/08/20 00:27:23;;;;;;;;;4.33;1.00;;;;;-147.47;100.00;64613.53;5025019;28;45957;-77
2022/08/20 00:29:48;;;;;;;;;1.00;1.00;;;;;-147.47;100.00;64613.53;5019745;28;46479;-77
2022/08/20 00:32:17;;;;;;;;;1.67;1.67;;;;;-147.47;100.00;64613.53;5033422;28;45743;-76
2022/08/20 00:34:43;;;;;;;;;2.00;2.00;;;;;-147.47;100.00;64613.53;5024952;28;45573;-78
2022/08/20 00:37:08;;;;;;;;;2.67;2.00;;;;;-147.47;100.00;64613.53;5027327;28;46470;-77
2022/08/20 00:39:34;;;;;;;;;1.67;1.67;;;;;-147.47;100.00;64613.53;5030234;28;46065;-78
2022/08/20 00:42:00;;;;;;;;;2.67;1.00;;;;;-147.47;100.00;64613.53;5030380;28;45500;-77
2022/08/20 00:44:26;;;;;;;;;5.33;1.67;;;;;-147.47;100.00;64613.53;5034613;28;45453;-75
2022/08/20 00:46:52;;;;;;;;;1.33;1.33;;;;;-147.47;100.00;64613.53;5016171;28;46562;-76
2022/08/20 00:49:24;;;;;;;;;2.00;2.00;;;;;-147.47;100.00;64613.53;5015791;28;45748;-76
2022/08/20 00:52:11;;;;;;;;;2.67;2.00;;;;;-147.47;100.00;64613.53;5009919;28;45896;-77
2022/08/20 00:54:48;;;;;;;;;1.00;1.00;;;;;-147.47;100.00;64613.53;5031841;28;45390;-76
2022/08/20 00:57:37;;;;;;;;;4.67;3.33;;;;;-147.47;100.00;64613.53;5033770;28;45976;-75
2022/08/20 01:00:10;;;;;;;;;2.00;2.00;;;;;-147.47;100.00;64613.53;4999160;28;47252;-77
2022/08/20 01:02:35;;;;;;;;;4.00;3.00;;;;;-147.47;100.00;64613.53;5031569;28;46196;-78
2022/08/20 01:05:01;;;;;;;;;3.00;3.00;;;;;-147.47;100.00;64613.53;5027568;28;45728;-78
2022/08/20 01:07:33;;;;;;;;;1.33;1.33;;;;;-147.47;100.00;64613.53;5033344;28;45440;-78
2022/08/20 01:10:02;;;;;;;;;2.67;2.00;;;;;-147.47;100.00;64613.53;5008476;28;46264;-78
2022/08/20 01:12:28;;;;;;;;;3.33;2.00;;;;;-147.47;100.00;64613.53;5028729;28;45468;-78
2022/08/20 01:14:57;;;;;;;;;4.00;1.00;;;;;-147.47;100.00;64613.53;5020543;28;45853;-79
2022/08/20 01:17:25;;;;;;;;;2.00;1.00;;;;;-147.47;100.00;64613.53;5023988;28;45357;-78
2022/08/20 01:19:58;;;;;;;;;3.00;2.00;;;;;-147.47;100.00;64613.53;5021459;28;45744;-79
2022/08/20 01:25:45;;;;;;;;;5.00;3.00;;;;;-147.47;100.00;64613.53;5025602;28;45606;-78
2022/08/20 01:28:13;;;;;;;;;3.00;3.00;;;;;-147.47;100.00;64613.53;4995830;28;45894;-77
2022/08/20 01:30:39;;;;;;;;;3.67;2.33;;;;;-147.47;100.00;64613.53;5028085;28;45469;-78
2022/08/20 01:33:05;;;;;;;;;1.00;1.00;;;;;-147.47;100.00;64613.53;4996012;28;46659;-78
2022/08/20 01:35:35;;;;;;;;;2.67;2.00;;;;;-147.47;100.00;64613.53;5025399;28;45896;-77
2022/08/20 01:38:01;;;;;;;;;1.00;1.00;;;;;-147.47;100.00;64613.53;5026711;28;46581;-77
2022/08/20 01:40:54;;;;;;;;;4.00;3.00;;;;;-147.47;100.00;64613.53;5032524;28;45463;-76
2022/08/20 01:43:20;;;;;;;;;6.67;6.67;;;;;-147.47;100.00;64613.53;5020294;28;45537;-76
2022/08/20 01:45:45;;;;;;;;;3.33;3.00;;;;;-147.47;100.00;64613.53;5029868;28;45463;-76
2022/08/20 01:48:12;;;;;;;;;3.00;3.00;;;;;-147.47;100.00;64613.53;5032143;28;45709;-76
2022/08/20 01:50:43;;;;;;;;;1.67;1.67;;;;;-147.47;100.00;64613.53;5007105;28;47043;-77
2022/08/20 01:53:15;;;;;;;;;3.00;3.00;;;;;-147.47;100.00;64613.53;5021100;28;45597;-76
2022/08/20 01:55:41;;;;;;;;;3.33;2.33;;;;;-147.47;100.00;64613.53;5015005;28;45608;-76
2022/08/20 01:58:06;;;;;;;;;2.67;2.00;;;;;-147.47;100.00;64613.53;5019742;28;46061;-76
2022/08/20 02:00:34;;;;;;;;;3.67;2.00;;;;;-147.47;100.00;64613.53;5032678;28;45666;-76
2022/08/20 02:03:02;;;;;;;;;3.33;2.33;;;;;-147.47;100.00;64613.53;5013083;28;45473;-76
2022/08/20 02:05:28;;;;;;;;;7.00;2.67;;;;;-147.47;100.00;64613.53;5032910;28;45412;-77
2022/08/20 02:07:54;;;;;;;;;2.00;2.00;;;;;-147.47;100.00;64613.53;4996258;28;47056;-77
2022/08/20 02:10:21;;;;;;;;;2.00;2.00;;;;;-147.47;100.00;64613.53;5024626;28;47049;-76
2022/08/20 02:12:47;;;;;;;;;3.00;2.00;;;;;-147.47;100.00;64613.53;5023048;28;45624;-76
2022/08/20 02:15:13;;;;;;;;;2.00;1.67;;;;;-147.47;100.00;64613.53;5014709;28;45781;-77
2022/08/20 02:17:40;;;;;;;;;4.00;3.00;;;;;-147.47;100.00;64613.53;5020954;28;46269;-77
2022/08/20 02:20:09;;;;;;;;;2.67;2.67;;;;;-147.47;100.00;64613.53;5009396;28;48310;-77
2022/08/20 02:22:47;;;;;;;;;2.33;2.33;;;;;-147.47;100.00;64613.53;5024698;28;45737;-77
2022/08/20 02:25:14;;;;;;;;;3.33;3.33;;;;;-147.47;100.00;64613.53;5014101;28;45444;-75
2022/08/20 02:27:42;;;;;;;;;2.00;1.00;;;;;-147.47;100.00;64613.53;5018874;28;45826;-77
2022/08/20 02:30:12;;;;;;;;;3.33;2.33;;;;;-147.47;100.00;64613.53;5020029;28;47810;-77
2022/08/20 02:32:39;;;;;;;;;2.33;1.00;;;;;-147.47;100.00;64613.53;5026427;28;45625;-76
2022/08/20 02:35:07;;;;;;;;;3.67;2.00;;;;;-147.47;100.00;64613.53;5013139;28;45538;-76
2022/08/20 02:37:34;;;;;;;;;5.00;2.67;;;;;-147.47;100.00;64613.53;5013860;28;45612;-76
2022/08/20 02:40:00;;;;;;;;;2.67;2.00;;;;;-147.47;100.00;64613.53;5029429;28;46214;-76
2022/08/20 02:42:26;;;;;;;;;5.67;3.00;;;;;-147.47;100.00;64613.53;5016994;28;45732;-75
2022/08/20 02:44:52;;;;;;;;;3.00;2.00;;;;;-147.47;100.00;64613.53;5031144;28;45347;-75
2022/08/20 02:47:18;;;;;;;;;3.00;2.00;;;;;-147.47;100.00;64613.53;5013698;28;45487;-77
2022/08/20 02:49:43;;;;;;;;;3.67;1.33;;;;;-147.47;100.00;64613.53;5032276;28;45731;-76
2022/08/20 02:52:09;;;;;;;;;3.67;2.33;;;;;-147.47;100.00;64613.53;5020852;28;45754;-75
2022/08/20 02:54:34;;;;;;;;;2.00;2.00;;;;;-147.47;100.00;64613.53;5032038;28;45764;-76
2022/08/20 02:57:02;;;;;;;;;2.67;1.00;;;;;-147.47;100.00;64613.53;5031792;28;45799;-76
2022/08/20 02:59:27;;;;;;;;;2.33;2.33;;;;;-147.47;100.00;64613.53;5031823;28;46226;-77
2022/08/20 03:01:53;;;;;;;;;2.00;2.00;;;;;-147.47;100.00;64613.53;5031276;28;45764;-78
2022/08/20 03:04:18;;;;;;;;;2.00;2.00;;;;;-147.47;100.00;64613.53;5027294;28;45511;-78
2022/08/20 03:06:44;;;;;;;;;2.00;2.00;;;;;-147.47;100.00;64613.53;5031022;28;45548;-78
2022/08/20 03:09:09;;;;;;;;;2.00;2.00;;;;;-147.47;100.00;64613.53;5022580;28;45373;-77
2022/08/20 03:11:35;;;;;;;;;1.00;1.00;;;;;-147.47;100.00;64613.53;5030387;28;45373;-78
2022/08/20 03:14:00;;;;;;;;;3.67;2.33;;;;;-147.47;100.00;64613.53;5023246;28;45790;-78
2022/08/20 03:16:26;;;;;;;;;5.00;3.67;;;;;-147.47;100.00;64613.53;5009073;28;45639;-77
2022/08/20 03:18:51;;;;;;;;;1.00;1.00;;;;;-147.47;100.00;64613.53;5026988;28;45446;-77
2022/08/20 03:21:17;;;;;;;;;3.67;3.00;;;;;-147.47;100.00;64613.53;5010568;28;45404;-78
2022/08/20 03:23:42;;;;;;;;;1.67;1.67;;;;;-147.47;100.00;64613.53;5029616;28;45844;-78
2022/08/20 03:26:11;;;;;;;;;1.00;1.00;;;;;-147.47;100.00;64613.53;5023886;28;45755;-78
2022/08/20 03:28:37;;;;;;;;;3.00;1.33;;;;;-147.47;100.00;64613.53;5001001;28;47567;-79
2022/08/20 03:31:04;;;;;;;;;2.00;2.00;;;;;-147.47;100.00;64613.53;5013433;28;45860;-76
2022/08/20 03:33:30;;;;;;;;;6.67;3.00;;;;;-147.47;100.00;64613.53;5024497;28;45713;-76
2022/08/20 03:35:56;;;;;;;;;2.00;2.00;;;;;-147.47;100.00;64613.53;5032751;28;45356;-75
2022/08/20 03:38:23;;;;;;;;;3.33;2.00;;;;;-147.47;100.00;64613.53;5016417;28;45848;-75
2022/08/20 03:40:49;;;;;;;;;4.00;3.33;;;;;-147.47;100.00;64613.53;5019270;28;45508;-78
2022/08/20 03:43:15;;;;;;;;;2.67;1.33;;;;;-147.47;100.00;64613.53;5012054;28;45495;-77
2022/08/20 03:45:43;;;;;;;;;5.33;2.00;;;;;-147.47;100.00;64613.53;5025764;28;45661;-76
2022/08/20 03:48:12;;;;;;;;;3.00;3.00;;;;;-147.47;100.00;64613.53;5030057;28;45792;-77
2022/08/20 03:50:40;;;;;;;;;2.33;2.00;;;;;-147.47;100.00;64613.53;5025813;28;45870;-76
2022/08/20 03:53:06;;;;;;;;;3.00;2.00;;;;;-147.47;100.00;64613.53;5016695;28;45911;-76
2022/08/20 03:55:32;;;;;;;;;1.50;1.00;;;;;-147.47;100.00;64613.53;5034333;28;45482;-78
2022/08/20 03:58:01;;;;;;;;;2.00;2.00;;;;;-147.47;100.00;64613.53;5034522;28;47332;-76
2022/08/20 04:00:35;;;;;;;;;2.00;2.00;;;;;-147.47;100.00;64613.53;5034412;28;45711;-78
2022/08/20 04:03:01;;;;;;;;;2.00;2.00;;;;;-147.47;100.00;64613.53;5034143;28;45444;-79
2022/08/20 04:05:28;;;;;;;;;1.33;1.33;;;;;-147.47;100.00;64613.53;5033977;28;45722;-79
2022/08/20 04:07:56;;;;;;;;;2.33;2.33;;;;;-147.47;100.00;64613.53;5033733;28;45757;-77
2022/08/20 04:10:23;;;;;;;;;2.33;1.00;;;;;-147.47;100.00;64613.53;5030780;28;45467;-77
2022/08/20 04:12:49;;;;;;;;;2.00;2.00;;;;;-147.47;100.00;64613.53;5013008;28;45361;-76
2022/08/20 04:15:16;;;;;;;;;2.33;2.33;;;;;-147.47;100.00;64613.53;5032207;28;45685;-77
2022/08/20 04:17:45;;;;;;;;;2.00;2.00;;;;;-147.47;100.00;64613.53;5028752;28;45577;-77
2022/08/20 04:20:17;;;;;;;;;5.33;2.33;;;;;-147.47;100.00;64613.53;5025499;28;45795;-78
2022/08/20 04:22:42;;;;;;;;;2.00;0.33;;;;;-147.47;100.00;64613.53;5033405;28;45870;-80
2022/08/20 04:25:08;;;;;;;;;2.00;1.00;;;;;-147.47;100.00;64613.53;5033292;28;46450;-77
2022/08/20 04:27:37;;;;;;;;;2.33;1.00;;;;;-147.47;100.00;64613.53;5029975;28;46072;-78
2022/08/20 04:30:05;;;;;;;;;4.33;2.00;;;;;-147.47;100.00;64613.53;5025610;28;45460;-77
2022/08/20 04:32:31;;;;;;;;;2.00;2.00;;;;;-147.47;100.00;64613.53;5033214;28;45654;-77
2022/08/20 04:34:57;;;;;;;;;2.00;2.00;;;;;-147.47;100.00;64613.53;5033552;28;45414;-77
2022/08/20 04:37:23;;;;;;;;;2.67;1.67;;;;;-147.47;100.00;64613.53;5020109;28;45965;-77
2022/08/20 04:42:35;;;;;;;;;2.33;2.33;;;;;-147.47;100.00;64613.53;5014809;28;45877;-78
2022/08/20 04:45:01;;;;;;;;;2.00;2.00;;;;;-147.47;100.00;64613.53;5024548;28;45817;-77
2022/08/20 04:47:26;;;;;;;;;1.33;1.33;;;;;-147.47;100.00;64613.53;5033620;28;45443;-77
2022/08/20 04:49:52;;;;;;;;;4.33;1.00;;;;;-147.47;100.00;64613.53;5024284;28;45831;-77
2022/08/20 04:52:17;;;;;;;;;2.67;2.33;;;;;-147.47;100.00;64613.53;5029365;28;45439;-78
2022/08/20 04:54:43;;;;;;;;;5.00;3.00;;;;;-147.47;100.00;64613.53;5023231;28;46162;-79
2022/08/20 04:57:08;;;;;;;;;2.00;2.00;;;;;-147.47;100.00;64613.53;5029070;28;45780;-79
2022/08/20 04:59:34;;;;;;;;;3.00;2.00;;;;;-147.47;100.00;64613.53;5034437;28;45818;-79
2022/08/20 05:02:01;;;;;;;;;2.00;1.00;;;;;-147.47;100.00;64613.53;5034063;28;45371;-77
2022/08/20 05:04:26;;;;;;;;;3.33;1.00;;;;;-147.47;100.00;64613.53;5037792;28;45453;-78
2022/08/20 05:06:52;;;;;;;;;3.00;1.67;;;;;-147.47;100.00;64613.53;5020943;28;46743;-76
2022/08/20 05:09:17;;;;;;;;;4.33;3.33;;;;;-147.47;100.00;64613.53;5022702;28;45384;-78
2022/08/20 05:11:43;;;;;;;;;4.67;3.00;;;;;-147.47;100.00;64613.53;5033947;28;45459;-77
2022/08/20 05:14:08;;;;;;;;;1.00;1.00;;;;;-147.47;100.00;64613.53;5031570;28;45664;-77
2022/08/20 05:16:39;;;;;;;;;2.00;1.00;;;;;-147.47;100.00;64613.53;5030965;28;46396;-76
2022/08/20 05:19:07;;;;;;;;;2.33;1.00;;;;;-147.47;100.00;64613.53;5031319;28;45788;-75
2022/08/20 05:21:33;;;;;;;;;3.00;3.00;;;;;-147.47;100.00;64613.53;5032990;28;45447;-76
2022/08/20 05:23:59;;;;;;;;;3.00;1.33;;;;;-147.47;100.00;64613.53;5015338;28;45818;-76
2022/08/20 05:26:25;;;;;;;;;4.33;3.00;;;;;-147.47;100.00;64613.53;5011524;28;47670;-77
2022/08/20 05:28:51;;;;;;;;;2.25;1.00;;;;;-147.47;100.00;64613.53;5032046;28;45770;-75
2022/08/20 05:31:16;;;;;;;;;1.75;1.50;;;;;-147.47;100.00;64613.53;5030404;28;45506;-77
2022/08/20 05:33:42;;;;;;;;;2.25;2.00;;;;;-147.47;100.00;64613.53;5030774;28;45818;-76
2022/08/20 05:36:08;;;;;;;;;3.33;1.00;;;;;-147.47;100.00;64613.53;5022713;28;45357;-76
2022/08/20 05:38:35;;;;;;;;;2.33;2.00;;;;;-147.47;100.00;64613.53;5062642;28;45467;-77
2022/08/20 05:41:02;;;;;;;;;3.25;1.75;;;;;-147.47;100.00;64613.53;5035684;28;44785;-77
2022/08/20 05:43:27;;;;;;;;;6.00;3.00;;;;;-147.47;100.00;64613.53;5048561;28;44777;-78
2022/08/20 05:45:56;;;;;;;;;2.00;2.00;;;;;-147.47;100.00;64613.53;5042561;28;45246;-78
2022/08/20 05:48:24;;;;;;;;;3.67;1.33;;;;;-147.47;100.00;64613.53;5051961;28;45506;-77
2022/08/20 05:50:51;;;;;;;;;3.25;2.50;;;;;-147.47;100.00;64613.53;5038805;28;44875;-77
2022/08/20 05:53:17;;;;;;;;;1.25;1.25;;;;;-147.47;100.00;64613.53;5050736;28;44694;-76
2022/08/20 05:55:44;;;;;;;;;2.75;1.00;;;;;-147.47;100.00;64613.53;5051464;28;46141;-77
2022/08/20 05:58:17;;;;;;;;;2.00;2.00;;;;;-147.47;100.00;64613.53;5042660;28;45078;-74
2022/08/20 06:00:43;;;;;;;;;4.50;1.25;;;;;-147.47;100.00;64613.53;5050872;28;44684;-75
2022/08/20 06:05:52;;;;;;;;;2.75;2.00;;;;;-147.47;100.00;64613.53;5054729;28;45320;-75
2022/08/20 06:08:17;;;;;;;;;1.50;1.00;;;;;-147.47;100.00;64613.53;5039579;28;45331;-76
2022/08/20 06:10:43;;;;;;;;;2.00;2.00;;;;;-147.47;100.00;64613.53;5038461;28;44839;-76
2022/08/20 06:13:09;;;;;;;;;1.50;1.50;;;;;-147.47;100.00;64613.53;5056363;28;45305;-76
2022/08/20 06:15:35;;;;;;;;;0.50;0.50;;;;;-147.47;100.00;64613.53;5043541;28;47509;-75
2022/08/20 06:18:06;;;;;;;;;2.50;1.00;;;;;-147.47;100.00;64613.53;5055028;28;44856;-76
2022/08/20 06:20:32;;;;;;;;;1.50;0.50;;;;;-147.47;100.00;64613.53;5037741;28;44746;-76
2022/08/20 06:22:58;;;;;;;;;2.25;1.50;;;;;-147.47;100.00;64613.53;5055945;28;44818;-76
2022/08/20 06:25:23;;;;;;;;;3.75;2.75;;;;;-147.47;100.00;64613.53;5050887;28;46872;-76
2022/08/20 06:27:49;;;;;;;;;2.50;1.75;;;;;-147.47;100.00;64613.53;5038407;28;45272;-77
2022/08/20 06:30:15;;;;;;;;;1.00;1.00;;;;;-147.47;100.00;64613.53;5048330;28;45336;-76
2022/08/20 06:32:41;;;;;;;;;2.75;2.00;;;;;-147.47;100.00;64613.53;5049681;28;45542;-76
2022/08/20 06:35:08;;;;;;;;;3.00;1.50;;;;;-147.47;100.00;64613.53;5054610;28;46478;-76
2022/08/20 06:37:37;;;;;;;;;2.00;1.50;;;;;-147.47;100.00;64613.53;5058098;28;44874;-79
2022/08/20 06:40:08;;;;;;;;;1.50;0.50;;;;;-147.47;100.00;64613.53;5058056;28;44710;-78
2022/08/20 06:42:34;;;;;;;;;1.25;1.00;;;;;-147.47;100.00;64613.53;5050827;28;45538;-78
2022/08/20 06:45:04;;;;;;;;;1.50;1.00;;;;;-147.47;100.00;64613.53;5051874;28;44988;-79
2022/08/20 06:47:30;;;;;;;;;2.00;2.00;;;;;-147.47;100.00;64613.53;5060287;28;45139;-78
2022/08/20 06:49:56;;;;;;;;;1.00;1.00;;;;;-147.47;100.00;64613.53;5059457;28;45348;-76
2022/08/20 06:52:22;;;;;;;;;1.50;1.50;;;;;-147.47;100.00;64613.53;5056981;28;45458;-75
2022/08/20 06:54:47;;;;;;;;;2.00;2.00;;;;;-147.47;100.00;64613.53;5056406;28;45175;-75
2022/08/20 06:57:13;;;;;;;;;1.00;0.50;;;;;-147.47;100.00;64613.53;5059083;28;44705;-75
2022/08/20 06:59:39;;;;;;;;;2.00;1.00;;;;;-147.47;100.00;64613.53;5059180;28;44781;-76
2022/08/20 07:02:04;;;;;;;;;4.75;1.75;;;;;-147.47;100.00;64613.53;5040367;28;45796;-76
2022/08/20 07:04:30;;;;;;;;;2.50;1.75;;;;;-147.47;100.00;64613.53;5058803;28;45711;-77
2022/08/20 07:06:56;;;;;;;;;1.00;1.00;;;;;-147.47;100.00;64613.53;5058795;28;45321;-80
2022/08/20 07:09:23;;;;;;;;;3.00;2.00;;;;;-147.47;100.00;64613.53;5042891;28;44729;-77
2022/08/20 07:11:49;;;;;;;;;1.00;1.00;;;;;-147.47;100.00;64613.53;5040883;28;45356;-76
2022/08/20 07:14:18;;;;;;;;;3.00;1.50;;;;;-147.47;100.00;64613.53;5059220;28;45214;-77
2022/08/20 07:16:46;;;;;;;;;2.00;1.00;;;;;-147.47;100.00;64613.53;5057417;28;45199;-77
2022/08/20 07:19:12;;;;;;;;;1.00;1.00;;;;;-147.47;100.00;64613.53;5047563;28;45283;-75
2022/08/20 07:21:37;;;;;;;;;0.00;0.00;;;;;-147.47;100.00;64613.53;5057771;28;45565;-75
2022/08/20 07:24:04;;;;;;;;;0.25;0.25;;;;;-147.47;100.00;64613.53;5057075;28;46506;-79
2022/08/20 07:26:29;;;;;;;;;1.00;1.00;;;;;-147.47;100.00;64613.53;5051480;28;45259;-79
2022/08/20 07:28:55;;;;;;;;;2.00;0.50;;;;;-147.47;100.00;64613.53;5042543;28;44706;-79
2022/08/20 07:34:05;;;;;;;;;1.25;1.25;;;;;-147.47;100.00;64613.53;5057701;28;45150;-78
2022/08/20 07:36:30;;;;;;;;;0.50;0.50;;;;;-147.47;100.00;64613.53;5049648;28;44770;-78
2022/08/20 07:38:56;;;;;;;;;1.00;1.00;;;;;-147.47;100.00;64613.53;5031466;28;45965;-77
2022/08/20 07:41:22;;;;;;;;;2.00;1.00;;;;;-147.47;100.00;64613.53;5022054;28;45569;-78
2022/08/20 07:43:48;;;;;;;;;1.00;1.00;;;;;-147.47;100.00;64613.53;5007710;28;45556;-75
2022/08/20 07:46:16;;;;;;;;;1.75;0.50;;;;;-147.47;100.00;64613.53;5029246;28;46041;-76
2022/08/20 07:48:45;;;;;;;;;1.25;1.25;;;;;-147.47;100.00;64613.53;5022316;28;45737;-76
2022/08/20 07:51:16;;;;;;;;;3.25;2.00;;;;;-147.47;100.00;64613.53;5027645;28;45936;-78
2022/08/20 07:53:42;;;;;;;;;2.00;1.00;;;;;-147.47;100.00;64613.53;5029294;28;47425;-74
2022/08/20 07:56:10;;;;;;;;;1.50;1.00;;;;;-147.47;100.00;64613.53;5028105;28;45836;-78
2022/08/20 07:58:42;;;;;;;;;2.00;2.00;;;;;-147.47;100.00;64613.53;5026793;28;45945;-79
2022/08/20 08:01:09;;;;;;;;;2.75;1.25;;;;;-147.47;100.00;64613.53;5030106;28;45548;-76
2022/08/20 08:03:36;;;;;;;;;2.25;2.00;;;;;-147.47;100.00;64613.53;5016147;28;47411;-78
2022/08/20 08:06:02;;;;;;;;;1.75;1.25;;;;;-147.47;100.00;64613.53;5028834;28;45812;-76
2022/08/20 08:08:31;;;;;;;;;2.75;2.75;;;;;-147.47;100.00;64613.53;5006594;28;46633;-77
2022/08/20 08:11:01;;;;;;;;;1.00;1.00;;;;;-147.47;100.00;64613.53;5026314;28;45460;-78
2022/08/20 08:13:31;;;;;;;;;2.75;1.00;;;;;-147.47;100.00;64613.53;5023993;28;48560;-77
2022/08/20 08:16:00;;;;;;;;;1.00;1.00;;;;;-147.47;100.00;64613.53;5021342;28;45801;-75
2022/08/20 08:18:32;;;;;;;;;1.00;1.00;;;;;-147.47;100.00;64613.53;5022865;28;45535;-76
2022/08/20 08:20:58;;;;;;;;;4.00;3.00;;;;;-147.47;100.00;64613.53;5018353;28;45475;-78
2022/08/20 08:23:24;;;;;;;;;3.50;2.25;;;;;-147.47;100.00;64613.53;5023794;28;46400;-77
2022/08/20 08:25:50;;;;;;;;;3.00;1.75;;;;;-147.47;100.00;64613.53;5025184;28;45662;-74
2022/08/20 08:28:16;;;;;;;;;1.25;1.25;;;;;-147.47;100.00;64613.53;5000843;28;46505;-76
2022/08/20 08:30:42;;;;;;;;;1.50;1.25;;;;;-147.47;100.00;64613.53;5020608;28;45783;-75
2022/08/20 08:33:32;;;;;;;;;6.25;3.00;;;;;-147.47;100.00;64613.53;5029688;28;46185;-79
2022/08/20 08:36:10;;;;;;;;;5.00;2.25;;;;;-147.47;100.00;64613.53;5008411;28;45298;-78
2022/08/20 08:38:38;;;;;;;;;4.00;3.75;;;;;-147.47;100.00;64613.53;5032777;28;45531;-76
2022/08/20 08:41:47;;;;;;;;;2.25;2.25;;;;;-147.47;100.00;64613.53;5012762;28;45592;-77
2022/08/20 08:44:20;;;;;;;;;1.00;1.00;;;;;-147.47;100.00;64613.53;5018720;28;46492;-77
2022/08/20 08:46:48;;;;;;;;;3.50;1.00;;;;;-147.47;100.00;64613.53;5054009;28;45838;-76
2022/08/20 08:49:21;;;;;;;;;4.75;2.00;;;;;-147.47;100.00;64613.53;5043429;28;45214;-76
2022/08/20 08:51:53;;;;;;;;;1.00;1.00;;;;;-147.47;100.00;64613.53;5054413;28;45556;-74
2022/08/20 08:54:23;;;;;;;;;3.25;2.00;;;;;-147.47;100.00;64613.53;5053798;28;45443;-78
2022/08/20 08:56:51;;;;;;;;;4.75;1.25;;;;;-147.47;100.00;64613.53;5049259;28;45345;-78
2022/08/20 08:59:19;;;;;;;;;3.25;2.25;;;;;-147.47;100.00;64613.53;5056193;28;45546;-77
2022/08/20 09:01:53;;;;;;;;;2.50;2.00;;;;;-147.47;100.00;64613.53;5043965;28;46591;-76
2022/08/20 09:04:20;;;;;;;;;6.00;3.00;;;;;-147.47;100.00;64613.53;5045263;28;45431;-77
2022/08/20 09:06:47;;;;;;;;;2.00;2.00;;;;;-147.47;100.00;64613.53;5037124;28;44906;-78
2022/08/20 09:09:20;;;;;;;;;2.25;1.25;;;;;-147.47;100.00;64613.53;5056618;28;45384;-77
2022/08/20 09:11:49;;;;;;;;;4.75;4.00;;;;;-147.47;100.00;64613.53;5050170;28;45584;-77
2022/08/20 09:14:15;;;;;;;;;7.75;5.00;;;;;-147.47;100.00;64613.53;5026360;28;46761;-78
2022/08/20 09:16:42;;;;;;;;;5.50;4.25;;;;;-147.47;100.00;64613.53;5038210;28;45490;-77
2022/08/20 09:19:07;;;;;;;;;9.67;7.00;;;;;-147.47;100.00;64613.53;5037706;28;45457;-77
2022/08/20 09:21:33;;;;;;;;;8.33;6.67;;;;;-147.47;100.00;64613.53;5046813;28;45712;-78
2022/08/20 09:23:58;;;;;;;;;2.25;2.25;;;;;-147.47;100.00;64613.53;5036246;28;46304;-77
2022/08/20 09:26:27;;;;;;;;;1.75;1.75;;;;;-147.47;100.00;64613.53;5054433;28;44807;-78
2022/08/20 09:28:57;;;;;;;;;2.50;2.50;;;;;-147.47;100.00;64613.53;5034462;28;45243;-77
2022/08/20 09:31:23;;;;;;;;;6.67;3.67;;;;;-147.47;100.00;64613.53;5047268;28;44862;-75
2022/08/20 09:33:50;;;;;;;;;5.67;3.00;;;;;-147.47;100.00;64613.53;5047120;28;45216;-77
2022/08/20 09:36:15;;;;;;;;;10.33;8.00;;;;;-147.47;100.00;64613.53;5034460;28;44864;-75
2022/08/20 09:38:41;;;;;;;;;6.00;3.00;;;;;-147.47;100.00;64613.53;5022109;28;45507;-76
2022/08/20 09:41:06;;;;;;;;;3.33;2.00;;;;;-147.47;100.00;64613.53;5033296;28;45967;-78
2022/08/20 09:43:32;;;;;;;;;5.00;4.33;;;;;-147.47;100.00;64613.53;5053941;28;46471;-76
2022/08/20 09:45:57;;;;;;;;;5.33;4.67;;;;;-147.47;100.00;64613.53;5047295;28;44877;-76
2022/08/20 09:48:25;;;;;;;;;5.00;5.00;;;;;-147.47;100.00;64613.53;5047988;28;44817;-75
2022/08/20 09:50:51;;;;;;;;;7.33;4.00;;;;;-147.47;100.00;64613.53;5038134;28;46326;-75
2022/08/20 09:53:19;;;;;;;;;7.00;4.33;;;;;-147.47;100.00;64613.53;5038977;28;45603;-76
2022/08/20 09:55:49;;;;;;;;;4.33;3.67;;;;;-147.47;100.00;64613.53;5034891;28;45416;-77
2022/08/20 09:58:34;;;;;;;;;7.00;4.00;;;;;-147.47;100.00;64613.53;5022499;28;45348;-76
2022/08/20 10:01:08;;;;;;;;;2.75;2.75;;;;;-147.47;100.00;64613.53;5052715;28;44814;-80
2022/08/20 10:03:34;;;;;;;;;3.00;3.00;;;;;-147.47;100.00;64613.53;5045518;28;45337;-77
2022/08/20 10:05:59;;;;;;;;;2.33;2.33;;;;;-147.47;100.00;64613.53;5052984;28;45239;-78
2022/08/20 10:08:26;;;;;;;;;1.50;1.50;;;;;-147.47;100.00;64613.53;5054425;28;44801;-75
2022/08/20 10:10:51;;;;;;;;;2.33;2.33;;;;;-147.47;100.00;64613.53;5034778;28;45759;-74
2022/08/20 10:13:16;;;;;;;;;4.00;3.00;;;;;-147.47;100.00;64613.53;5031957;28;47204;-75
2022/08/20 10:15:42;;;;;;;;;3.00;1.00;;;;;-147.47;100.00;64613.53;5044862;28;44722;-74
2022/08/20 10:18:08;;;;;;;;;4.33;3.00;;;;;-147.47;100.00;64613.53;5047056;28;45384;-75
2022/08/20 10:20:34;;;;;;;;;1.00;1.00;;;;;-147.47;100.00;64613.53;5044424;28;44825;-76
2022/08/20 10:23:00;;;;;;;;;3.67;1.33;;;;;-147.47;100.00;64613.53;5053963;28;45449;-75
2022/08/20 10:25:29;;;;;;;;;1.33;1.33;;;;;-147.47;100.00;64613.53;5052542;28;45495;-74
2022/08/20 10:27:55;;;;;;;;;6.00;2.00;;;;;-147.47;100.00;64613.53;5046984;28;45484;-75
2022/08/20 10:30:20;;;;;;;;;5.00;3.00;;;;;-147.47;100.00;64613.53;5051390;28;45384;-74
2022/08/20 10:32:47;;;;;;;;;3.00;1.75;;;;;-147.47;100.00;64613.53;5049764;28;45679;-75
2022/08/20 10:35:13;;;;;;;;;4.25;1.75;;;;;-147.47;100.00;64613.53;5055661;28;45494;-77
2022/08/20 10:37:41;;;;;;;;;2.00;2.00;;;;;-147.47;100.00;64613.53;5052727;28;44860;-75
2022/08/20 10:40:08;;;;;;;;;0.75;0.75;;;;;-147.47;100.00;64613.53;5049544;28;45396;-75
2022/08/20 10:42:33;;;;;;;;;1.75;1.00;;;;;-147.47;100.00;64613.53;5046096;28;45328;-74
2022/08/20 10:44:59;;;;;;;;;3.00;2.00;;;;;-147.47;100.00;64613.53;5035445;28;44934;-76
2022/08/20 10:47:33;;;;;;;;;1.75;1.75;;;;;-147.47;100.00;64613.53;5056232;28;45883;-76
2022/08/20 10:50:01;;;;;;;;;2.00;2.00;;;;;-147.47;100.00;64613.53;5037734;28;46107;-76
2022/08/20 10:52:27;;;;;;;;;3.00;1.75;;;;;-147.47;100.00;64613.53;5056635;28;45714;-79
2022/08/20 10:54:54;;;;;;;;;2.25;1.00;;;;;-147.47;100.00;64613.53;5050800;28;44832;-77
2022/08/20 10:57:26;;;;;;;;;1.75;1.75;;;;;-147.47;100.00;64613.53;5047588;28;45858;-78
2022/08/20 10:59:53;;;;;;;;;0.00;0.00;;;;;-147.47;100.00;64613.53;5039762;28;44845;-77
2022/08/20 11:02:20;;;;;;;;;4.00;1.00;;;;;-147.47;100.00;64613.53;5048165;28;45250;-74
2022/08/20 11:04:47;;;;;;;;;1.00;1.00;;;;;-147.47;100.00;64613.53;5048533;28;44909;-76
2022/08/20 11:07:28;;;;;;;;;2.00;2.00;;;;;-147.47;100.00;64613.53;5038827;28;44758;-77
2022/08/20 11:09:54;;;;;;;;;1.00;1.00;;;;;-147.47;100.00;64613.53;5056096;28;45416;-75
2022/08/20 11:12:20;;;;;;;;;4.50;1.00;;;;;-147.47;100.00;64613.53;5047177;28;45191;-76
2022/08/20 11:14:49;;;;;;;;;2.00;1.00;;;;;-147.47;100.00;64613.53;5051296;28;44797;-76
2022/08/20 11:17:22;;;;;;;;;1.75;1.75;;;;;-147.47;100.00;64613.53;5037670;28;44794;-76
2022/08/20 11:19:47;;;;;;;;;2.50;2.50;;;;;-147.47;100.00;64613.53;5040186;28;46180;-76
2022/08/20 11:22:14;;;;;;;;;1.25;1.25;;;;;-147.47;100.00;64613.53;5060027;28;45472;-77